createdAt,value
2022-10-01T00:02:19.124Z,17.02
2022-10-01T00:07:23.183Z,18.75
2022-10-01T00:12:25.733Z,18.20
2022-10-01T00:17:29.274Z,18.33
2022-10-01T00:22:32.511Z,20.52
2022-10-01T00:27:35.976Z,7.72
2022-10-01T00:32:39.052Z,14.00
2022-10-01T00:37:42.896Z,14.35
2022-10-01T00:42:45.883Z,12.65
2022-10-01T00:47:52.028Z,14.52
2022-10-01T00:52:57.419Z,17.65
2022-10-01T00:58:00.640Z,13.18
2022-10-01T01:03:03.220Z,11.50
2022-10-01T01:08:06.596Z,17.58
2022-10-01T01:13:14.116Z,13.25
2022-10-01T01:18:51.583Z,8.85
2022-10-01T01:24:23.393Z,6.85
2022-10-01T01:29:33.965Z,15.77
2022-10-01T01:34:37.532Z,10.95
2022-10-01T01:39:44.202Z,17.50
2022-10-01T01:44:48.777Z,11.90
2022-10-01T01:49:53.392Z,14.07
2022-10-01T01:54:56.728Z,13.50
2022-10-01T02:00:02.342Z,13.52
2022-10-01T02:05:11.652Z,12.40
2022-10-01T02:10:52.108Z,9.52
2022-10-01T02:16:06.951Z,11.45
2022-10-01T02:21:27.090Z,12.27
2022-10-01T02:26:30.249Z,12.73
2022-10-01T02:31:33.611Z,7.53
2022-10-01T02:36:37.531Z,8.98
2022-10-01T02:41:43.149Z,7.18
2022-10-01T02:46:51.330Z,8.35
2022-10-01T02:51:59.624Z,7.75
2022-10-01T02:57:20.671Z,7.95
2022-10-01T03:02:26.884Z,9.23
2022-10-01T03:07:34.652Z,7.47
2022-10-01T03:12:38.419Z,5.47
2022-10-01T03:17:41.184Z,3.37
2022-10-01T03:22:46.963Z,6.93
2022-10-01T03:27:50.471Z,5.93
2022-10-01T03:32:53.243Z,2.95
2022-10-01T03:37:56.762Z,6.18
2022-10-01T03:42:59.575Z,3.80
2022-10-01T03:48:02.368Z,4.13
2022-10-01T03:53:06.531Z,4.13
2022-10-01T03:58:09.741Z,6.53
2022-10-01T04:03:12.990Z,8.77
2022-10-01T04:08:20.804Z,7.57
2022-10-01T04:13:26.395Z,6.88
2022-10-01T04:18:29.657Z,6.90
2022-10-01T04:23:32.316Z,7.50
2022-10-01T04:28:35.228Z,14.77
2022-10-01T04:33:40.592Z,9.13
2022-10-01T04:38:43.113Z,7.28
2022-10-01T04:43:45.822Z,8.85
2022-10-01T04:48:51.297Z,10.05
2022-10-01T04:53:54.005Z,11.85
2022-10-01T04:58:56.432Z,10.50
2022-10-01T05:04:00.252Z,9.40
2022-10-01T05:09:02.932Z,11.73
2022-10-01T05:14:07.193Z,11.43
2022-10-01T05:19:09.716Z,17.00
2022-10-01T05:24:12.234Z,12.00
2022-10-01T05:29:15.299Z,14.65
2022-10-01T05:34:19.166Z,14.55
2022-10-01T05:39:21.675Z,13.67
2022-10-01T05:44:24.872Z,17.80
2022-10-01T05:49:27.395Z,20.67
2022-10-01T05:54:29.970Z,21.35
2022-10-01T05:59:32.536Z,18.15
2022-10-01T06:04:40.328Z,23.02
2022-10-01T06:09:43.617Z,13.88
2022-10-01T06:14:46.715Z,17.60
2022-10-01T06:19:50.642Z,17.83
2022-10-01T06:24:56.599Z,17.52
2022-10-01T06:29:59.337Z,15.60
2022-10-01T06:35:03.175Z,20.50
2022-10-01T06:40:07.398Z,24.07
2022-10-01T06:45:10.329Z,21.23
2022-10-01T06:50:13.330Z,18.58
2022-10-01T06:55:21.379Z,18.90
2022-10-01T07:00:24.285Z,25.13
2022-10-01T07:05:28.206Z,19.33
2022-10-01T07:10:32.348Z,19.83
2022-10-01T07:15:53.944Z,26.40
2022-10-01T07:21:00.027Z,39.08
2022-10-01T07:26:05.619Z,31.30
2022-10-01T07:31:12.365Z,41.45
2022-10-01T07:36:15.066Z,28.90
2022-10-01T07:41:18.001Z,17.75
2022-10-01T07:46:20.764Z,22.73
2022-10-01T07:51:44.409Z,22.85
2022-10-01T07:56:49.607Z,17.55
2022-10-01T08:01:54.195Z,10.70
2022-10-01T08:06:57.609Z,14.90
2022-10-01T08:12:00.138Z,15.85
2022-10-01T08:17:02.852Z,16.08
2022-10-01T08:22:05.316Z,28.77
2022-10-01T08:27:08.185Z,24.77
2022-10-01T08:32:12.201Z,26.30
2022-10-01T08:37:14.825Z,25.90
2022-10-01T08:42:30.974Z,21.70
2022-10-01T08:47:40.949Z,33.50
2022-10-01T08:52:51.841Z,17.15
2022-10-01T08:57:58.334Z,24.75
2022-10-01T09:03:09.135Z,24.20
2022-10-01T09:08:45.961Z,22.88
2022-10-01T09:14:33.396Z,19.85
2022-10-01T09:20:02.591Z,28.65
2022-10-01T09:25:25.450Z,13.48
2022-10-01T09:30:29.170Z,19.77
2022-10-01T09:35:48.714Z,18.00
2022-10-01T09:40:55.139Z,16.30
2022-10-01T09:45:58.058Z,19.25
2022-10-01T09:51:16.832Z,23.73
2022-10-01T09:56:28.377Z,19.23
2022-10-01T10:01:47.174Z,18.40
2022-10-01T10:06:51.579Z,29.60
2022-10-01T10:11:56.665Z,18.08
2022-10-01T10:17:05.967Z,18.13
2022-10-01T10:22:15.132Z,22.75
2022-10-01T10:27:29.763Z,25.13
2022-10-01T10:32:32.934Z,18.70
2022-10-01T10:37:37.487Z,17.70
2022-10-01T10:42:49.088Z,25.13
2022-10-01T10:47:53.067Z,23.77
2022-10-01T10:52:56.842Z,16.92
2022-10-01T10:58:15.464Z,20.90
2022-10-01T11:03:21.647Z,12.23
2022-10-01T11:08:27.751Z,17.92
2022-10-01T11:13:52.417Z,19.40
2022-10-01T11:19:24.110Z,17.83
2022-10-01T11:24:46.139Z,12.82
2022-10-01T11:30:21.306Z,9.63
2022-10-01T11:35:44.189Z,9.27
2022-10-01T11:41:10.590Z,15.02
2022-10-01T11:46:28.365Z,14.90
2022-10-01T11:51:39.971Z,19.65
2022-10-01T11:57:13.145Z,23.02
2022-10-01T12:02:31.691Z,18.02
2022-10-01T12:07:57.454Z,16.88
2022-10-01T12:13:40.325Z,13.98
2022-10-01T12:18:55.548Z,11.07
2022-10-01T12:24:02.454Z,18.40
2022-10-01T12:29:43.428Z,15.98
2022-10-01T12:35:05.269Z,15.80
2022-10-01T12:40:19.927Z,11.68
2022-10-01T12:45:38.913Z,19.88
2022-10-01T12:51:21.526Z,19.08
2022-10-01T12:56:31.088Z,22.48
2022-10-01T13:01:43.108Z,23.98
2022-10-01T13:07:07.975Z,17.02
2022-10-01T13:12:35.800Z,16.83
2022-10-01T13:17:51.111Z,16.40
2022-10-01T13:23:10.759Z,18.33
2022-10-01T13:28:21.676Z,15.00
2022-10-01T13:33:36.134Z,15.50
2022-10-01T13:38:41.228Z,16.67
2022-10-01T13:44:09.042Z,17.58
2022-10-01T13:49:25.349Z,22.42
2022-10-01T14:01:27.341Z,15.07
2022-10-01T14:06:35.461Z,9.02
2022-10-01T14:11:58.095Z,17.80
2022-10-01T14:17:02.108Z,14.32
2022-10-01T14:22:19.500Z,17.67
2022-10-01T14:27:35.035Z,16.17
2022-10-01T14:32:59.629Z,16.98
2022-10-01T14:38:04.730Z,16.48
2022-10-01T14:43:22.557Z,18.02
2022-10-01T14:48:28.820Z,7.60
2022-10-01T14:53:34.717Z,18.55
2022-10-01T14:58:41.193Z,13.95
2022-10-01T15:03:44.373Z,9.27
2022-10-01T15:08:51.668Z,14.57
2022-10-01T15:13:57.651Z,12.00
2022-10-01T15:19:15.838Z,19.13
2022-10-01T15:24:32.105Z,18.00
2022-10-01T15:29:35.499Z,11.10
2022-10-01T15:34:42.977Z,14.27
2022-10-01T15:39:49.273Z,20.17
2022-10-01T15:45:26.390Z,19.17
2022-10-01T15:50:36.535Z,13.93
2022-10-01T15:55:52.381Z,13.82
2022-10-01T16:00:57.849Z,17.67
2022-10-01T16:06:02.823Z,15.93
2022-10-01T16:11:16.574Z,12.52
2022-10-01T16:16:29.722Z,14.32
2022-10-01T16:21:40.274Z,22.73
2022-10-01T16:26:44.331Z,15.70
2022-10-01T16:31:47.022Z,18.88
2022-10-01T16:36:50.773Z,11.93
2022-10-01T16:42:19.084Z,17.30
2022-10-01T16:47:17.882Z,16.35
2022-10-01T16:52:20.428Z,17.98
2022-10-01T16:57:23.053Z,12.52
2022-10-01T17:02:25.631Z,12.05
2022-10-01T17:07:29.158Z,18.90
2022-10-01T17:12:31.770Z,19.38
2022-10-01T17:17:36.931Z,16.95
2022-10-01T17:22:39.919Z,14.13
2022-10-01T17:27:42.814Z,15.18
2022-10-01T17:32:45.362Z,18.90
2022-10-01T17:37:48.085Z,27.00
2022-10-01T17:42:51.101Z,14.65
2022-10-01T17:47:54.017Z,14.38
2022-10-01T17:52:58.919Z,11.98
2022-10-01T17:58:01.654Z,14.73
2022-10-01T18:03:04.682Z,12.43
2022-10-01T18:08:08.080Z,22.05
2022-10-01T18:13:10.596Z,11.85
2022-10-01T18:23:39.219Z,11.80
2022-10-01T18:28:43.169Z,12.80
2022-10-01T18:33:51.917Z,8.38
2022-10-01T18:39:15.921Z,13.07
2022-10-01T18:44:20.675Z,17.80
2022-10-01T18:49:29.430Z,11.45
2022-10-01T18:54:52.893Z,23.02
2022-10-01T19:00:10.804Z,17.87
2022-10-01T19:05:24.923Z,17.88
2022-10-01T19:10:36.597Z,15.77
2022-10-01T19:15:45.105Z,27.90
2022-10-01T19:21:06.278Z,11.95
2022-10-01T19:26:24.153Z,13.90
2022-10-01T19:31:41.634Z,26.08
2022-10-01T19:36:50.546Z,24.27
2022-10-01T19:42:07.250Z,21.30
2022-10-01T19:47:29.332Z,21.90
2022-10-01T19:52:38.316Z,25.25
2022-10-01T19:57:46.131Z,20.38
2022-10-01T20:03:11.942Z,25.63
2022-10-01T20:08:44.330Z,26.60
2022-10-01T20:14:01.459Z,19.23
2022-10-01T20:19:06.972Z,18.55
2022-10-01T20:24:54.765Z,23.17
2022-10-01T20:30:06.608Z,19.88
2022-10-01T20:35:25.003Z,19.27
2022-10-01T20:40:29.259Z,15.88
2022-10-01T20:45:36.262Z,20.48
2022-10-01T20:50:45.284Z,17.52
2022-10-01T20:55:52.629Z,15.73
2022-10-01T21:01:13.045Z,19.33
2022-10-01T21:06:19.065Z,26.83
2022-10-01T21:11:26.812Z,14.75
2022-10-01T21:16:46.885Z,26.23
2022-10-01T21:22:04.619Z,19.55
2022-10-01T21:27:38.233Z,23.67
2022-10-01T21:33:30.358Z,25.90
2022-10-01T21:38:49.036Z,23.25
2022-10-01T21:44:21.447Z,22.08
2022-10-01T21:49:57.403Z,29.65
2022-10-01T21:55:23.471Z,19.92
2022-10-01T22:00:29.818Z,31.48
2022-10-01T22:05:50.338Z,24.90
2022-10-01T22:11:07.783Z,27.50
2022-10-01T22:16:14.395Z,36.33
2022-10-01T22:21:31.514Z,36.47
2022-10-01T22:26:38.344Z,43.03
2022-10-01T22:31:44.212Z,25.63
2022-10-01T22:36:54.326Z,45.72
2022-10-01T22:42:10.692Z,29.17
2022-10-01T22:47:28.316Z,33.10
2022-10-01T22:53:07.199Z,29.88
2022-10-01T22:58:31.068Z,40.63
2022-10-01T23:03:55.997Z,40.05
2022-10-01T23:09:07.099Z,54.83
2022-10-01T23:14:35.356Z,44.85
2022-10-01T23:19:59.204Z,28.35
2022-10-01T23:25:44.059Z,30.42
2022-10-01T23:31:05.083Z,27.58
2022-10-01T23:36:29.658Z,41.45
2022-10-01T23:41:55.351Z,26.67
2022-10-01T23:47:25.821Z,22.13
2022-10-01T23:52:39.151Z,34.58
2022-10-01T23:57:42.171Z,29.55
